Time;durP1;ratioP1;P1;durP2;ratioP2;P2;SDS_P1;SDS_P2;PMS_P1;PMS_P2;Temp;Humidity;BMP_temperature;BMP_pressure;BME280_temperature;BME280_humidity;BME280_pressure;Samples;Min_cycle;Max_cycle;Signal;HPM_P1;HPM_P2
2023/08/09 00:00:57;;;;;;;2.27;1.10;;;17.70;99.90;;;;;;4979447;28;20714;-73
2023/08/09 00:03:23;;;;;;;2.27;1.10;;;17.70;99.90;;;;;;4963503;28;20634;-73
2023/08/09 00:05:49;;;;;;;2.20;0.93;;;17.70;99.90;;;;;;4973505;28;20207;-73
2023/08/09 00:08:15;;;;;;;2.40;0.90;;;17.70;99.90;;;;;;4973687;28;20630;-73
2023/08/09 00:10:40;;;;;;;1.60;1.13;;;17.70;99.90;;;;;;4989567;28;20187;-72
2023/08/09 00:13:07;;;;;;;5.03;1.53;;;17.70;99.90;;;;;;4977589;28;20962;-72
2023/08/09 00:15:32;;;;;;;2.43;1.10;;;17.70;99.90;;;;;;4986635;28;20218;-73
2023/08/09 00:17:58;;;;;;;1.97;1.40;;;17.70;99.90;;;;;;4993300;28;20590;-72
2023/08/09 00:20:25;;;;;;;2.53;1.23;;;17.70;99.90;;;;;;4994360;28;20641;-72
2023/08/09 00:22:50;;;;;;;2.20;1.40;;;17.80;99.90;;;;;;4975651;28;20315;-73
2023/08/09 00:25:17;;;;;;;1.70;1.10;;;17.80;99.90;;;;;;4987113;28;21060;-73
2023/08/09 00:27:42;;;;;;;4.57;1.80;;;17.80;99.90;;;;;;4981549;28;20191;-73
2023/08/09 00:30:12;;;;;;;3.53;1.20;;;17.80;99.90;;;;;;4978689;28;21190;-73
2023/08/09 00:32:39;;;;;;;3.00;1.17;;;17.80;99.90;;;;;;4973141;28;20190;-72
2023/08/09 00:35:05;;;;;;;2.27;1.20;;;17.80;99.90;;;;;;4975263;28;20821;-73
2023/08/09 00:37:31;;;;;;;7.03;1.53;;;17.90;99.90;;;;;;4993347;28;20585;-73
2023/08/09 00:39:57;;;;;;;4.17;1.20;;;17.90;99.90;;;;;;4992052;28;21230;-72
2023/08/09 00:42:25;;;;;;;2.87;1.60;;;17.90;99.90;;;;;;4968237;28;20182;-72
2023/08/09 00:44:51;;;;;;;2.60;1.40;;;17.90;99.90;;;;;;4975510;28;21158;-73
2023/08/09 00:47:19;;;;;;;3.73;1.37;;;17.90;99.90;;;;;;4985107;28;20682;-73
2023/08/09 00:49:45;;;;;;;3.10;1.20;;;17.90;99.90;;;;;;4984494;28;20183;-73
2023/08/09 00:52:11;;;;;;;3.83;1.40;;;17.90;99.90;;;;;;4993358;28;20617;-73
2023/08/09 00:54:40;;;;;;;2.87;1.20;;;17.90;99.90;;;;;;4986833;28;20642;-72
2023/08/09 00:57:09;;;;;;;2.63;1.27;;;17.90;99.90;;;;;;4987248;28;20680;-73
2023/08/09 00:59:36;;;;;;;2.63;1.27;;;18.00;99.90;;;;;;4979362;28;20594;-72
2023/08/09 01:02:01;;;;;;;6.87;1.67;;;18.00;99.90;;;;;;4981867;28;20605;-73
2023/08/09 01:04:27;;;;;;;2.70;1.30;;;17.90;99.90;;;;;;4977645;28;20214;-73
2023/08/09 01:07:02;;;;;;;2.80;1.27;;;18.00;99.90;;;;;;4978175;28;20211;-72
2023/08/09 01:09:50;;;;;;;2.83;1.10;;;18.00;99.90;;;;;;4973053;28;21000;-72
2023/08/09 01:12:29;;;;;;;2.80;1.37;;;18.00;99.90;;;;;;4972435;28;21312;-72
2023/08/09 01:15:00;;;;;;;4.20;1.40;;;18.00;99.90;;;;;;4972416;28;20642;-72
2023/08/09 01:17:32;;;;;;;3.43;1.50;;;18.00;99.90;;;;;;4977179;28;20593;-72
2023/08/09 01:19:59;;;;;;;1.97;1.13;;;18.00;99.90;;;;;;4980101;28;20660;-72
2023/08/09 01:22:35;;;;;;;2.30;1.20;;;18.00;99.90;;;;;;4981215;28;20944;-73
2023/08/09 01:25:06;;;;;;;3.63;1.60;;;18.00;99.90;;;;;;4984734;28;20712;-73
2023/08/09 01:27:33;;;;;;;3.90;1.30;;;18.00;99.90;;;;;;4987206;28;21140;-73
2023/08/09 01:30:00;;;;;;;3.37;1.40;;;18.00;99.90;;;;;;4959600;28;20617;-73
2023/08/09 01:32:28;;;;;;;2.27;1.67;;;18.00;99.90;;;;;;4975764;28;20622;-72
2023/08/09 01:34:55;;;;;;;4.27;1.60;;;18.00;99.90;;;;;;4980464;28;20732;-73
2023/08/09 01:37:42;;;;;;;6.13;1.80;;;18.00;99.90;;;;;;4952149;28;20594;-73
2023/08/09 01:40:10;;;;;;;2.77;1.30;;;18.00;99.90;;;;;;4996862;28;20621;-74
2023/08/09 01:42:37;;;;;;;2.07;1.53;;;18.00;99.90;;;;;;4955959;28;21003;-73
2023/08/09 01:45:05;;;;;;;3.10;1.70;;;18.00;99.90;;;;;;4973597;28;20611;-73
2023/08/09 01:47:32;;;;;;;2.57;1.20;;;18.00;99.90;;;;;;4991079;28;20605;-73
2023/08/09 01:49:59;;;;;;;2.40;1.80;;;18.00;99.90;;;;;;4975159;28;20599;-74
2023/08/09 01:52:24;;;;;;;4.23;1.40;;;18.10;99.90;;;;;;4991321;28;20582;-73
2023/08/09 01:54:50;;;;;;;3.30;1.83;;;18.10;99.90;;;;;;4990741;28;20641;-73
2023/08/09 01:57:16;;;;;;;2.53;1.57;;;18.10;99.90;;;;;;4983671;28;20232;-73
2023/08/09 01:59:44;;;;;;;2.67;1.70;;;18.10;99.90;;;;;;4959147;28;20186;-73
2023/08/09 02:02:09;;;;;;;3.10;2.13;;;18.10;99.90;;;;;;4990431;28;20613;-74
2023/08/09 02:04:36;;;;;;;3.83;2.70;;;18.10;99.90;;;;;;4977448;28;20595;-74
2023/08/09 02:07:01;;;;;;;2.27;2.00;;;18.00;99.90;;;;;;4989222;28;20210;-74
2023/08/09 02:09:28;;;;;;;4.37;2.27;;;17.90;99.90;;;;;;4975002;28;20586;-74
2023/08/09 02:11:54;;;;;;;2.30;1.90;;;17.90;99.90;;;;;;4981987;28;20270;-74
2023/08/09 02:14:20;;;;;;;3.33;1.80;;;17.80;99.90;;;;;;4971726;28;21053;-74
2023/08/09 02:16:46;;;;;;;2.80;1.83;;;17.70;99.90;;;;;;4971677;28;20634;-73
2023/08/09 02:19:12;;;;;;;2.00;1.40;;;17.70;99.90;;;;;;5003234;28;20195;-74
2023/08/09 02:21:39;;;;;;;2.53;1.60;;;17.60;99.90;;;;;;4971130;28;20586;-73
2023/08/09 02:24:06;;;;;;;1.80;1.40;;;17.60;99.90;;;;;;4973629;28;20615;-74
2023/08/09 02:26:33;;;;;;;2.17;1.67;;;17.50;99.90;;;;;;4981098;28;20637;-73
2023/08/09 02:29:00;;;;;;;4.60;1.40;;;17.40;99.90;;;;;;4974457;28;20674;-73
2023/08/09 02:31:27;;;;;;;2.60;1.80;;;17.40;99.90;;;;;;4982621;28;20594;-73
2023/08/09 02:33:54;;;;;;;2.17;1.57;;;17.40;99.90;;;;;;4991511;28;20589;-73
2023/08/09 02:36:20;;;;;;;2.33;1.63;;;17.40;99.90;;;;;;4974957;28;20616;-73
2023/08/09 02:38:47;;;;;;;2.03;1.60;;;17.30;99.90;;;;;;4990636;28;20777;-73
2023/08/09 02:41:13;;;;;;;2.43;1.63;;;17.30;99.90;;;;;;4990653;28;20663;-73
2023/08/09 02:43:39;;;;;;;2.53;2.33;;;17.30;99.90;;;;;;4993483;28;20194;-73
2023/08/09 02:46:05;;;;;;;3.20;1.83;;;17.30;99.90;;;;;;4982483;28;20195;-73
2023/08/09 02:48:31;;;;;;;3.30;2.30;;;17.30;99.90;;;;;;4985701;28;21101;-73
2023/08/09 02:50:56;;;;;;;4.63;1.87;;;17.30;99.90;;;;;;4970994;28;20529;-74
2023/08/09 02:53:32;;;;;;;2.10;1.77;;;17.30;99.90;;;;;;4982621;28;20208;-73
2023/08/09 02:55:57;;;;;;;2.80;1.40;;;17.20;99.90;;;;;;4989263;28;20217;-73
2023/08/09 02:58:23;;;;;;;1.93;1.40;;;17.20;99.90;;;;;;4975031;28;20594;-73
2023/08/09 03:00:49;;;;;;;3.53;1.87;;;17.20;99.90;;;;;;4974998;28;20183;-73
2023/08/09 03:03:15;;;;;;;2.67;2.27;;;17.20;99.90;;;;;;4975641;28;20172;-73
2023/08/09 03:05:41;;;;;;;4.40;1.87;;;17.10;99.90;;;;;;4985087;28;20202;-73
2023/08/09 03:08:06;;;;;;;2.67;2.20;;;17.10;99.90;;;;;;4990005;28;20175;-73
2023/08/09 03:10:32;;;;;;;2.40;2.00;;;17.10;99.90;;;;;;4977376;28;20184;-74
2023/08/09 03:12:58;;;;;;;4.63;2.20;;;17.10;99.90;;;;;;4971535;28;20184;-74
2023/08/09 03:15:24;;;;;;;3.60;3.10;;;17.00;99.90;;;;;;4977552;28;21253;-73
2023/08/09 03:17:50;;;;;;;3.50;2.53;;;17.00;99.90;;;;;;4982194;28;20582;-73
2023/08/09 03:20:17;;;;;;;2.67;1.90;;;17.00;99.90;;;;;;4971035;28;20176;-73
2023/08/09 03:22:48;;;;;;;2.30;2.00;;;17.00;99.90;;;;;;4977583;28;20633;-73
2023/08/09 03:25:15;;;;;;;3.10;2.07;;;16.90;99.90;;;;;;4975964;28;20734;-73
2023/08/09 03:27:44;;;;;;;1.93;1.73;;;16.90;99.90;;;;;;4993029;28;21190;-73
2023/08/09 03:30:10;;;;;;;2.80;2.50;;;16.90;99.90;;;;;;4986844;28;20590;-73
2023/08/09 03:32:37;;;;;;;2.77;2.23;;;16.90;99.90;;;;;;4968039;28;20194;-73
2023/08/09 03:35:04;;;;;;;2.33;1.90;;;16.90;99.90;;;;;;4957692;28;20662;-73
2023/08/09 03:37:30;;;;;;;3.93;1.93;;;16.90;99.90;;;;;;4989994;28;20625;-73
2023/08/09 03:39:56;;;;;;;2.40;2.00;;;16.80;99.90;;;;;;4973781;28;20676;-73
2023/08/09 03:42:22;;;;;;;2.33;2.10;;;16.80;99.90;;;;;;4978424;28;21104;-73
2023/08/09 03:44:47;;;;;;;2.60;2.23;;;16.80;99.90;;;;;;4970779;28;20211;-73
2023/08/09 03:47:13;;;;;;;3.50;2.53;;;16.80;99.90;;;;;;4970497;28;20266;-73
2023/08/09 03:49:40;;;;;;;3.83;3.00;;;16.80;99.90;;;;;;4969939;28;20188;-73
2023/08/09 03:52:06;;;;;;;3.33;2.40;;;16.80;99.90;;;;;;4971489;28;20587;-74
2023/08/09 03:54:33;;;;;;;4.73;2.53;;;16.80;99.90;;;;;;4983610;28;20306;-73
2023/08/09 03:56:59;;;;;;;3.87;2.70;;;16.80;99.90;;;;;;4959827;28;20729;-74
2023/08/09 03:59:25;;;;;;;2.70;2.43;;;16.80;99.90;;;;;;4989302;28;20175;-73
2023/08/09 04:01:50;;;;;;;3.37;3.07;;;16.80;99.90;;;;;;4982657;28;20541;-73
2023/08/09 04:04:16;;;;;;;3.00;2.70;;;16.70;99.90;;;;;;4970655;28;20187;-73
2023/08/09 04:06:42;;;;;;;3.90;3.03;;;16.80;99.90;;;;;;4992391;28;20286;-73
2023/08/09 04:09:08;;;;;;;3.33;2.93;;;16.80;99.90;;;;;;4990969;28;20183;-73
2023/08/09 04:11:34;;;;;;;3.20;2.70;;;16.80;99.90;;;;;;4974495;28;20536;-73
2023/08/09 04:14:00;;;;;;;3.23;2.57;;;16.80;99.90;;;;;;4993248;28;21215;-73
2023/08/09 04:16:26;;;;;;;3.30;2.50;;;16.80;99.90;;;;;;4990815;28;20625;-73
2023/08/09 04:18:52;;;;;;;3.60;2.87;;;16.80;99.90;;;;;;4989190;28;21207;-73
2023/08/09 04:21:18;;;;;;;4.20;3.80;;;16.80;99.90;;;;;;4985415;28;20565;-74
2023/08/09 04:23:44;;;;;;;4.30;3.90;;;16.80;99.90;;;;;;4978971;28;20179;-74
2023/08/09 04:26:09;;;;;;;4.20;3.57;;;16.80;99.90;;;;;;4975133;28;20730;-74
2023/08/09 04:28:35;;;;;;;3.77;2.77;;;16.80;99.90;;;;;;4980144;28;20262;-73
2023/08/09 04:31:03;;;;;;;4.10;2.90;;;16.70;99.90;;;;;;4973591;28;20587;-74
2023/08/09 04:33:28;;;;;;;5.20;4.13;;;16.80;99.90;;;;;;4985598;28;20168;-74
2023/08/09 04:35:54;;;;;;;3.70;3.17;;;16.70;99.90;;;;;;4970000;28;20650;-74
2023/08/09 04:38:20;;;;;;;3.70;2.70;;;16.80;99.90;;;;;;4982904;28;20275;-73
2023/08/09 04:40:45;;;;;;;3.90;3.60;;;16.80;99.90;;;;;;4987975;28;20182;-73
2023/08/09 04:43:13;;;;;;;3.83;3.50;;;16.80;99.90;;;;;;4987594;28;20180;-73
2023/08/09 04:45:39;;;;;;;3.57;3.23;;;16.80;99.90;;;;;;4983192;28;20209;-73
2023/08/09 04:48:06;;;;;;;3.50;3.13;;;16.80;99.90;;;;;;4974486;28;21207;-73
2023/08/09 04:50:32;;;;;;;4.60;3.50;;;16.80;99.90;;;;;;4994314;28;20941;-73
2023/08/09 04:52:58;;;;;;;3.90;3.17;;;16.80;99.90;;;;;;4993852;28;20690;-73
2023/08/09 04:55:24;;;;;;;3.20;2.87;;;16.90;99.90;;;;;;4973138;28;20737;-73
2023/08/09 04:57:49;;;;;;;3.83;3.20;;;16.80;99.90;;;;;;4974481;28;20539;-73
2023/08/09 05:00:16;;;;;;;5.60;3.03;;;16.80;99.90;;;;;;4990874;28;20697;-73
2023/08/09 05:02:41;;;;;;;4.37;3.27;;;16.80;99.90;;;;;;4985719;28;20266;-73
2023/08/09 05:05:08;;;;;;;5.43;3.30;;;16.90;99.90;;;;;;4972957;28;20626;-73
2023/08/09 05:07:35;;;;;;;5.83;4.27;;;16.90;99.90;;;;;;4974445;28;20584;-73
2023/08/09 05:10:02;;;;;;;3.87;3.23;;;16.90;99.90;;;;;;4972649;28;20993;-73
2023/08/09 05:12:28;;;;;;;4.70;3.03;;;16.90;99.90;;;;;;4976747;28;20961;-73
2023/08/09 05:14:54;;;;;;;3.57;3.00;;;17.00;99.90;;;;;;4992383;28;20645;-73
2023/08/09 05:17:20;;;;;;;3.70;3.33;;;17.00;99.90;;;;;;4989377;28;20194;-73
2023/08/09 05:19:45;;;;;;;4.77;2.87;;;17.10;99.90;;;;;;4983184;28;20645;-74
2023/08/09 05:22:11;;;;;;;3.90;2.83;;;17.20;99.90;;;;;;4973606;28;21128;-73
2023/08/09 05:24:37;;;;;;;4.17;3.17;;;17.20;99.90;;;;;;4972083;28;20179;-74
2023/08/09 05:27:03;;;;;;;5.07;3.33;;;17.30;99.90;;;;;;4973982;28;20204;-74
2023/08/09 05:29:28;;;;;;;5.17;3.80;;;17.40;99.90;;;;;;4978491;28;20557;-74
2023/08/09 05:31:54;;;;;;;4.17;2.80;;;17.40;99.90;;;;;;4979319;28;20183;-74
2023/08/09 05:34:20;;;;;;;3.40;2.60;;;17.50;99.90;;;;;;4992002;28;20199;-74
2023/08/09 05:36:45;;;;;;;3.70;3.03;;;17.50;99.90;;;;;;4991893;28;20609;-74
2023/08/09 05:39:12;;;;;;;2.80;2.57;;;17.50;99.90;;;;;;4991693;28;20194;-74
2023/08/09 05:41:39;;;;;;;3.97;3.57;;;17.60;99.90;;;;;;4992613;28;20178;-74
2023/08/09 05:44:04;;;;;;;3.47;2.70;;;17.60;99.90;;;;;;4996328;28;20673;-74
2023/08/09 05:46:30;;;;;;;3.13;2.23;;;17.70;99.90;;;;;;4985599;28;20713;-74
2023/08/09 05:48:56;;;;;;;2.93;2.63;;;17.70;99.90;;;;;;4986213;28;20186;-74
2023/08/09 05:51:22;;;;;;;2.53;2.33;;;17.70;99.90;;;;;;4957283;28;20186;-73
2023/08/09 05:53:51;;;;;;;3.60;2.57;;;17.70;99.90;;;;;;4971871;28;20190;-72
2023/08/09 05:56:19;;;;;;;4.10;3.07;;;17.70;99.90;;;;;;4940008;28;20677;-72
2023/08/09 05:58:45;;;;;;;3.40;3.00;;;17.70;99.90;;;;;;4972125;28;20695;-72
2023/08/09 06:01:12;;;;;;;2.60;2.40;;;17.80;99.90;;;;;;4981988;28;20604;-72
2023/08/09 06:03:39;;;;;;;3.27;2.97;;;17.80;99.90;;;;;;4974526;28;20581;-73
2023/08/09 06:06:10;;;;;;;3.87;2.30;;;17.80;99.90;;;;;;4975022;28;20614;-73
2023/08/09 06:08:37;;;;;;;3.13;2.30;;;17.90;99.90;;;;;;4984064;28;20614;-71
2023/08/09 06:11:03;;;;;;;2.90;2.17;;;17.90;99.90;;;;;;4984901;28;20718;-71
2023/08/09 06:13:29;;;;;;;3.00;2.50;;;18.00;99.90;;;;;;4974287;28;20681;-72
2023/08/09 06:15:56;;;;;;;3.20;2.27;;;18.10;99.90;;;;;;4986591;28;20654;-72
2023/08/09 06:18:22;;;;;;;2.00;1.60;;;18.10;99.90;;;;;;4980496;28;21139;-72
2023/08/09 06:20:48;;;;;;;3.60;2.03;;;18.20;99.90;;;;;;4983766;28;20617;-72
2023/08/09 06:23:14;;;;;;;4.13;2.47;;;18.20;99.90;;;;;;4986035;28;20183;-71
2023/08/09 06:25:42;;;;;;;2.97;2.67;;;18.20;99.90;;;;;;4993184;28;20667;-72
2023/08/09 06:28:10;;;;;;;3.30;2.77;;;18.30;99.90;;;;;;4988347;28;20614;-71
2023/08/09 06:30:36;;;;;;;3.70;2.90;;;18.30;99.90;;;;;;4972884;28;20956;-72
2023/08/09 06:33:02;;;;;;;3.30;3.00;;;18.40;99.90;;;;;;4976664;28;20179;-72
2023/08/09 06:35:29;;;;;;;4.10;3.30;;;18.40;99.90;;;;;;4986637;28;20211;-72
2023/08/09 06:37:55;;;;;;;3.47;3.17;;;18.50;99.90;;;;;;4972724;28;20614;-72
2023/08/09 06:40:21;;;;;;;4.43;3.30;;;18.50;99.90;;;;;;4981372;28;20578;-72
2023/08/09 06:42:47;;;;;;;4.17;3.20;;;18.60;99.90;;;;;;4991782;28;20743;-72
2023/08/09 06:45:16;;;;;;;4.30;2.90;;;18.60;99.90;;;;;;4974572;28;20207;-72
2023/08/09 06:47:42;;;;;;;2.47;2.00;;;18.70;99.90;;;;;;4966437;28;20617;-72
2023/08/09 06:50:09;;;;;;;3.33;2.47;;;18.90;99.90;;;;;;4991896;28;20207;-72
2023/08/09 06:52:38;;;;;;;2.37;1.90;;;19.00;99.90;;;;;;4986938;28;20183;-72
2023/08/09 06:55:08;;;;;;;2.40;2.20;;;19.30;99.90;;;;;;4972182;28;20646;-72
2023/08/09 06:57:34;;;;;;;2.40;2.20;;;19.50;99.90;;;;;;4983018;28;20673;-72
2023/08/09 07:00:01;;;;;;;2.37;1.87;;;19.80;99.90;;;;;;4990178;28;20578;-73
2023/08/09 07:02:26;;;;;;;2.73;2.23;;;20.50;99.90;;;;;;4990685;28;20599;-73
2023/08/09 07:04:54;;;;;;;2.17;1.77;;;21.50;99.90;;;;;;5006853;28;20677;-72
2023/08/09 07:07:21;;;;;;;2.80;1.83;;;22.60;99.90;;;;;;4982429;28;20191;-72
2023/08/09 07:09:47;;;;;;;2.60;1.97;;;23.60;99.90;;;;;;4984451;28;20705;-73
2023/08/09 07:12:12;;;;;;;1.77;1.63;;;24.50;99.90;;;;;;4982286;28;21181;-72
2023/08/09 07:14:38;;;;;;;2.10;1.27;;;25.50;99.90;;;;;;4990364;28;20212;-72
2023/08/09 07:17:04;;;;;;;2.10;1.20;;;26.60;99.90;;;;;;4974681;28;20627;-72
2023/08/09 07:19:29;;;;;;;2.10;1.40;;;27.60;99.90;;;;;;4989532;28;20264;-72
2023/08/09 07:21:55;;;;;;;2.13;1.60;;;28.60;99.90;;;;;;4989657;28;20187;-72
2023/08/09 07:24:21;;;;;;;2.00;1.50;;;29.60;99.90;;;;;;4983365;28;20212;-72
2023/08/09 07:26:47;;;;;;;2.07;1.30;;;30.60;99.90;;;;;;4984534;28;20641;-73
2023/08/09 07:29:13;;;;;;;2.23;2.03;;;31.30;99.90;;;;;;4982086;28;20191;-73
2023/08/09 07:31:38;;;;;;;1.83;1.53;;;31.50;99.90;;;;;;4971796;28;20205;-73
2023/08/09 07:34:04;;;;;;;2.40;1.30;;;31.80;99.90;;;;;;4970619;28;20197;-73
2023/08/09 07:36:30;;;;;;;2.20;1.33;;;32.40;99.90;;;;;;4971754;28;20210;-73
2023/08/09 07:38:57;;;;;;;1.80;1.40;;;32.90;99.90;;;;;;4986119;28;21206;-72
2023/08/09 07:41:22;;;;;;;2.03;1.10;;;33.00;99.90;;;;;;4981666;28;20189;-73
2023/08/09 07:43:48;;;;;;;1.80;1.20;;;32.70;99.90;;;;;;4984869;28;20591;-72
2023/08/09 07:46:14;;;;;;;2.20;1.10;;;32.20;99.90;;;;;;4982048;28;20204;-72
2023/08/09 07:48:40;;;;;;;2.03;1.30;;;31.60;99.90;;;;;;4977841;28;20641;-73
2023/08/09 07:51:11;;;;;;;2.00;1.53;;;31.00;99.90;;;;;;4986615;28;20187;-72
2023/08/09 07:53:38;;;;;;;2.03;1.30;;;30.30;99.90;;;;;;4983324;28;20591;-72
2023/08/09 07:56:04;;;;;;;2.00;1.30;;;29.60;99.90;;;;;;4981701;28;20668;-72
2023/08/09 07:58:29;;;;;;;2.47;1.90;;;28.90;99.90;;;;;;4958089;28;20679;-72
2023/08/09 08:00:55;;;;;;;2.47;2.10;;;28.30;99.90;;;;;;4974531;28;21179;-73
2023/08/09 08:03:21;;;;;;;2.53;1.40;;;28.20;99.90;;;;;;4973980;28;20177;-72
2023/08/09 08:05:46;;;;;;;1.90;1.57;;;28.60;99.90;;;;;;4983662;28;20198;-72
2023/08/09 08:08:12;;;;;;;2.20;1.57;;;29.10;99.90;;;;;;4993480;28;20638;-72
2023/08/09 08:10:38;;;;;;;1.90;1.20;;;29.50;99.90;;;;;;4994748;28;20649;-73
2023/08/09 08:13:04;;;;;;;1.80;1.10;;;29.90;99.90;;;;;;4994564;28;20180;-72
2023/08/09 08:15:29;;;;;;;1.60;0.90;;;30.40;99.90;;;;;;4994661;28;20211;-73
2023/08/09 08:17:56;;;;;;;1.80;1.10;;;31.00;99.90;;;;;;4987855;28;20167;-72
2023/08/09 08:20:22;;;;;;;1.50;0.80;;;31.70;99.90;;;;;;4973814;28;20207;-72
2023/08/09 08:22:49;;;;;;;1.53;0.90;;;32.40;99.90;;;;;;4973803;28;21176;-73
2023/08/09 08:25:17;;;;;;;2.00;0.90;;;33.10;99.90;;;;;;4973741;28;20207;-73
2023/08/09 08:27:45;;;;;;;2.73;1.20;;;33.70;99.90;;;;;;4978714;28;20644;-73
2023/08/09 08:30:17;;;;;;;1.47;0.83;;;34.40;99.90;;;;;;4991773;28;20618;-72
2023/08/09 08:32:44;;;;;;;1.40;0.70;;;34.90;99.90;;;;;;4992713;28;20594;-73
2023/08/09 08:35:13;;;;;;;1.70;0.90;;;35.40;99.90;;;;;;4984684;28;20744;-73
2023/08/09 08:37:41;;;;;;;2.30;1.10;;;35.90;99.90;;;;;;4968877;28;20625;-73
2023/08/09 08:40:21;;;;;;;1.50;0.90;;;36.30;99.20;;;;;;4984773;28;20693;-73
2023/08/09 08:42:48;;;;;;;2.27;1.03;;;36.60;97.80;;;;;;4981229;28;20661;-73
2023/08/09 08:45:15;;;;;;;1.40;0.70;;;37.10;96.40;;;;;;4988575;28;20713;-73
2023/08/09 08:47:46;;;;;;;1.70;0.93;;;37.40;95.00;;;;;;4986113;28;20583;-73
2023/08/09 08:50:14;;;;;;;2.40;0.90;;;37.70;94.10;;;;;;4989217;28;20955;-72
2023/08/09 08:52:43;;;;;;;3.60;1.20;;;38.00;92.80;;;;;;4985842;28;21088;-73
2023/08/09 08:55:11;;;;;;;1.50;0.90;;;38.20;91.80;;;;;;5001503;28;20737;-73
2023/08/09 08:57:38;;;;;;;1.50;0.80;;;38.30;90.40;;;;;;4972847;28;21070;-72
2023/08/09 09:00:08;;;;;;;2.20;1.20;;;38.40;88.60;;;;;;4972785;28;20606;-72
2023/08/09 09:02:35;;;;;;;2.97;1.27;;;38.40;86.40;;;;;;4978483;28;20603;-72
2023/08/09 09:05:02;;;;;;;3.87;1.30;;;38.40;83.90;;;;;;4979390;28;20583;-72
2023/08/09 09:07:29;;;;;;;1.80;1.20;;;38.10;80.40;;;;;;4972756;28;20602;-72
2023/08/09 09:10:03;;;;;;;1.60;1.00;;;37.60;78.20;;;;;;4972958;28;20686;-72
2023/08/09 09:12:29;;;;;;;1.80;1.20;;;36.90;73.50;;;;;;4974091;28;20685;-73
2023/08/09 09:14:55;;;;;;;1.73;1.20;;;36.10;74.30;;;;;;4978018;28;20760;-72
2023/08/09 09:17:21;;;;;;;2.10;1.10;;;35.20;73.10;;;;;;4992631;28;20178;-72
2023/08/09 09:19:48;;;;;;;1.83;1.20;;;34.40;72.80;;;;;;4984944;28;20186;-72
2023/08/09 09:22:28;;;;;;;2.83;1.40;;;33.50;72.80;;;;;;4976040;28;20595;-72
2023/08/09 09:24:58;;;;;;;2.43;1.20;;;32.80;73.30;;;;;;4978432;28;20587;-72
2023/08/09 09:27:33;;;;;;;2.03;1.40;;;32.00;73.50;;;;;;4983857;28;20579;-72
2023/08/09 09:30:12;;;;;;;2.10;1.30;;;31.40;74.40;;;;;;4988781;28;20701;-72
2023/08/09 09:33:00;;;;;;;2.00;1.30;;;31.00;78.00;;;;;;4972708;28;20962;-73
2023/08/09 09:35:28;;;;;;;3.80;1.13;;;30.80;78.30;;;;;;4972257;28;20654;-72
2023/08/09 09:37:58;;;;;;;2.60;1.20;;;30.50;79.50;;;;;;4981437;28;20654;-73
2023/08/09 09:40:35;;;;;;;2.00;0.90;;;30.30;80.20;;;;;;4990673;28;20579;-72
2023/08/09 09:43:02;;;;;;;3.50;1.10;;;30.40;80.20;;;;;;4977548;28;20682;-72
2023/08/09 09:45:30;;;;;;;1.70;1.10;;;30.70;83.70;;;;;;4971922;28;20720;-72
2023/08/09 09:48:02;;;;;;;1.60;0.83;;;31.20;84.70;;;;;;4972415;28;20639;-72
2023/08/09 09:50:31;;;;;;;2.00;1.03;;;31.80;85.00;;;;;;4971366;28;20598;-72
2023/08/09 09:52:57;;;;;;;1.60;0.80;;;32.40;85.50;;;;;;4972236;28;20590;-72
2023/08/09 09:55:26;;;;;;;1.70;0.80;;;33.10;85.30;;;;;;4972357;28;20646;-72
2023/08/09 09:57:53;;;;;;;2.27;0.90;;;33.80;85.30;;;;;;4990891;28;20610;-72
2023/08/09 10:00:25;;;;;;;1.90;1.10;;;34.40;84.50;;;;;;4975133;28;20601;-72
2023/08/09 10:02:53;;;;;;;2.10;1.20;;;34.90;79.60;;;;;;4972947;28;20701;-72
2023/08/09 10:05:24;;;;;;;2.00;1.00;;;34.80;76.00;;;;;;4971647;28;20634;-72
2023/08/09 10:07:51;;;;;;;1.70;0.90;;;34.70;74.20;;;;;;4973227;28;20600;-72
2023/08/09 10:10:17;;;;;;;2.40;1.10;;;34.50;71.90;;;;;;4972631;28;20666;-72
2023/08/09 10:12:47;;;;;;;2.10;1.00;;;34.40;71.50;;;;;;4978185;28;20590;-72
2023/08/09 10:15:16;;;;;;;1.90;1.27;;;34.50;72.70;;;;;;4976849;28;20663;-72
2023/08/09 10:17:44;;;;;;;1.70;1.13;;;34.50;71.30;;;;;;4972575;28;20610;-72
2023/08/09 10:20:11;;;;;;;5.00;1.30;;;34.60;71.10;;;;;;4971358;28;20583;-72
2023/08/09 10:22:38;;;;;;;2.43;1.30;;;34.70;72.70;;;;;;4973621;28;20591;-72
2023/08/09 10:25:04;;;;;;;2.10;1.13;;;35.10;73.20;;;;;;4976732;28;20674;-72
2023/08/09 10:27:51;;;;;;;1.80;1.10;;;35.40;72.70;;;;;;4977082;28;20623;-73
2023/08/09 10:30:19;;;;;;;2.00;1.30;;;35.80;71.40;;;;;;4971524;28;20657;-72
2023/08/09 10:32:56;;;;;;;3.40;1.10;;;36.20;70.10;;;;;;5005351;28;20946;-73
2023/08/09 10:35:48;;;;;;;1.50;0.90;;;36.40;68.20;;;;;;4982126;28;20643;-72
2023/08/09 10:38:39;;;;;;;2.60;0.90;;;36.50;65.90;;;;;;4979582;28;20969;-72
2023/08/09 10:41:10;;;;;;;2.67;0.90;;;36.60;65.30;;;;;;4979128;28;20572;-73
2023/08/09 10:43:38;;;;;;;2.27;0.87;;;36.70;64.50;;;;;;4986450;28;20570;-72
2023/08/09 10:46:24;;;;;;;1.60;1.00;;;36.60;63.10;;;;;;4984615;28;20621;-72
2023/08/09 10:48:51;;;;;;;1.87;1.00;;;36.50;61.10;;;;;;4984067;28;20585;-72
2023/08/09 10:51:22;;;;;;;1.70;0.90;;;36.20;61.20;;;;;;5002811;28;20625;-72
2023/08/09 10:53:57;;;;;;;2.40;1.23;;;35.90;60.20;;;;;;4983120;28;21178;-72
2023/08/09 10:56:33;;;;;;;2.20;1.30;;;35.80;59.70;;;;;;4989990;28;20669;-72
2023/08/09 10:59:12;;;;;;;2.37;1.30;;;35.60;60.20;;;;;;4984663;28;20653;-72
2023/08/09 11:01:39;;;;;;;2.43;1.10;;;35.40;59.30;;;;;;4980830;28;20594;-72
2023/08/09 11:04:10;;;;;;;2.87;1.00;;;35.10;60.50;;;;;;5000465;28;20590;-72
2023/08/09 11:06:39;;;;;;;1.80;1.20;;;34.90;59.40;;;;;;4982081;28;20622;-72
2023/08/09 11:09:16;;;;;;;2.93;1.20;;;34.70;59.20;;;;;;4975755;28;20591;-72
2023/08/09 11:11:45;;;;;;;1.80;1.10;;;34.40;57.30;;;;;;4981736;28;20589;-72
2023/08/09 11:14:14;;;;;;;3.17;1.70;;;34.00;58.00;;;;;;4984767;28;20770;-72
2023/08/09 11:16:41;;;;;;;2.33;1.07;;;33.80;57.60;;;;;;4973364;28;20661;-72
2023/08/09 11:19:07;;;;;;;1.70;1.10;;;33.40;57.60;;;;;;4965596;28;20614;-72
2023/08/09 11:21:51;;;;;;;1.80;1.00;;;33.10;57.80;;;;;;4980841;28;20598;-72
2023/08/09 11:24:19;;;;;;;1.90;1.10;;;32.80;57.40;;;;;;4985994;28;20586;-72
2023/08/09 11:26:48;;;;;;;1.70;1.00;;;32.60;58.30;;;;;;4954831;28;20630;-72
2023/08/09 11:29:15;;;;;;;1.70;1.10;;;32.50;58.80;;;;;;4979539;28;20601;-72
2023/08/09 11:31:42;;;;;;;2.63;2.00;;;32.40;59.10;;;;;;4987453;28;20605;-72
2023/08/09 11:34:10;;;;;;;2.10;1.37;;;32.30;59.10;;;;;;4970702;28;20601;-72
2023/08/09 11:36:36;;;;;;;1.90;1.10;;;32.10;58.70;;;;;;4972171;28;20626;-72
2023/08/09 11:39:04;;;;;;;2.00;1.10;;;32.00;59.10;;;;;;4984697;28;20636;-72
2023/08/09 11:41:43;;;;;;;2.40;1.13;;;31.90;59.20;;;;;;4970462;28;20182;-72
2023/08/09 11:44:11;;;;;;;2.00;1.10;;;31.80;59.60;;;;;;4971764;28;20585;-72
2023/08/09 11:46:37;;;;;;;2.23;1.17;;;31.70;59.10;;;;;;4954011;28;20622;-72
2023/08/09 11:49:04;;;;;;;1.67;1.20;;;31.50;59.00;;;;;;4983507;28;20687;-72
2023/08/09 11:51:33;;;;;;;1.80;1.10;;;31.30;58.90;;;;;;4988263;28;20616;-72
2023/08/09 11:54:00;;;;;;;1.80;1.00;;;31.10;59.00;;;;;;4982894;28;20665;-72
2023/08/09 11:56:32;;;;;;;1.73;0.97;;;31.00;59.40;;;;;;4980760;28;20647;-72
2023/08/09 11:59:01;;;;;;;2.10;1.47;;;30.80;59.30;;;;;;4970025;28;20622;-73
2023/08/09 12:01:39;;;;;;;3.50;1.03;;;30.60;60.20;;;;;;4978326;28;21153;-73
2023/08/09 12:04:10;;;;;;;2.93;1.37;;;30.50;60.00;;;;;;4969992;28;20594;-72
2023/08/09 12:06:44;;;;;;;2.90;1.10;;;30.40;60.10;;;;;;4979399;28;20680;-73
2023/08/09 12:09:35;;;;;;;1.70;1.00;;;30.30;60.10;;;;;;4990294;28;20684;-73
2023/08/09 12:12:08;;;;;;;3.00;1.40;;;30.20;60.50;;;;;;4973194;28;20606;-73
2023/08/09 12:14:36;;;;;;;2.43;1.30;;;30.30;61.00;;;;;;4973574;28;20630;-72
2023/08/09 12:17:03;;;;;;;4.83;1.30;;;30.20;61.20;;;;;;4970271;28;20618;-72
2023/08/09 12:19:29;;;;;;;1.90;1.10;;;30.20;62.00;;;;;;4978433;28;20582;-73
2023/08/09 12:21:55;;;;;;;1.90;1.10;;;30.30;61.90;;;;;;4982934;28;20604;-72
2023/08/09 12:24:21;;;;;;;2.13;1.20;;;30.20;62.50;;;;;;4973244;28;20590;-73
2023/08/09 12:26:47;;;;;;;2.47;1.07;;;30.20;62.50;;;;;;4989337;28;21252;-72
2023/08/09 12:29:13;;;;;;;1.80;1.17;;;30.20;61.70;;;;;;4986362;28;20591;-72
2023/08/09 12:31:38;;;;;;;2.20;1.30;;;30.00;61.40;;;;;;4979478;28;20179;-73
2023/08/09 12:34:04;;;;;;;3.10;1.20;;;29.90;60.60;;;;;;4974303;28;20230;-73
2023/08/09 12:36:30;;;;;;;4.70;1.40;;;29.60;60.20;;;;;;4989336;28;20214;-72
2023/08/09 12:38:57;;;;;;;2.27;1.03;;;29.40;60.60;;;;;;4973116;28;20218;-72
2023/08/09 12:41:23;;;;;;;3.20;1.10;;;29.30;60.80;;;;;;4989358;28;20586;-72
2023/08/09 12:43:49;;;;;;;2.00;1.40;;;29.20;61.00;;;;;;4984144;28;21053;-73
2023/08/09 12:46:14;;;;;;;2.47;1.33;;;29.20;61.20;;;;;;4982534;28;20667;-72
2023/08/09 12:48:40;;;;;;;3.30;1.60;;;29.10;61.70;;;;;;4989237;28;20817;-73
2023/08/09 12:51:06;;;;;;;2.00;1.30;;;29.10;62.50;;;;;;4973094;28;20176;-73